Time;durP1;ratioP1;P1;durP2;ratioP2;P2;SDS_P1;SDS_P2;PMS_P1;PMS_P2;Temp;Humidity;BMP_temperature;BMP_pressure;BME280_temperature;BME280_humidity;BME280_pressure;Samples;Min_cycle;Max_cycle;Signal;HPM_P1;HPM_P2
2021/10/16 00:01:30;;;;;;;13.13;2.92;;;10.20;99.90;;;;;;5031191;28;20113;-65
2021/10/16 00:03:56;;;;;;;22.70;3.95;;;10.20;99.90;;;;;;5034447;28;20060;-64
2021/10/16 00:06:22;;;;;;;12.65;2.92;;;10.20;99.90;;;;;;5033193;28;20466;-65
2021/10/16 00:08:48;;;;;;;15.73;3.72;;;10.20;99.90;;;;;;5033607;28;20057;-65
2021/10/16 00:11:14;;;;;;;19.38;3.20;;;10.20;99.90;;;;;;5032612;28;20052;-65
2021/10/16 00:13:41;;;;;;;9.73;2.55;;;10.20;99.90;;;;;;5032957;28;20029;-64
2021/10/16 00:16:09;;;;;;;12.20;2.58;;;10.30;99.90;;;;;;5031060;28;20017;-65
2021/10/16 00:18:35;;;;;;;10.05;2.58;;;10.30;99.90;;;;;;5033458;28;20033;-65
2021/10/16 00:21:01;;;;;;;11.75;2.63;;;10.30;99.90;;;;;;5032554;28;20097;-65
2021/10/16 00:23:28;;;;;;;14.50;3.15;;;10.30;99.90;;;;;;5033683;28;20096;-65
2021/10/16 00:25:54;;;;;;;14.18;3.75;;;10.30;99.90;;;;;;5034096;28;20088;-65
2021/10/16 00:28:20;;;;;;;18.75;3.30;;;10.30;99.90;;;;;;5031466;28;20041;-65
2021/10/16 00:30:46;;;;;;;11.77;2.83;;;10.30;99.90;;;;;;5031873;28;20037;-65
2021/10/16 00:33:13;;;;;;;14.38;2.67;;;10.30;99.90;;;;;;5034081;28;20045;-65
2021/10/16 00:35:39;;;;;;;12.93;2.67;;;10.30;99.90;;;;;;5032979;28;20692;-65
2021/10/16 00:38:05;;;;;;;10.18;2.67;;;10.30;99.90;;;;;;5032302;28;20327;-65
2021/10/16 00:40:31;;;;;;;15.48;2.70;;;10.30;99.90;;;;;;5031678;28;20037;-65
2021/10/16 00:42:57;;;;;;;12.93;2.50;;;10.30;99.90;;;;;;5031880;28;20037;-65
2021/10/16 00:45:24;;;;;;;11.52;2.60;;;10.30;99.90;;;;;;5030634;28;20331;-65
2021/10/16 00:47:51;;;;;;;13.23;3.40;;;10.40;99.90;;;;;;5032217;28;20048;-65
2021/10/16 00:50:19;;;;;;;12.48;2.67;;;10.30;99.90;;;;;;5033168;28;20128;-66
2021/10/16 00:52:47;;;;;;;14.30;2.78;;;10.30;99.90;;;;;;5032583;28;20021;-65
2021/10/16 00:55:16;;;;;;;11.02;2.33;;;10.30;99.90;;;;;;5031751;28;20029;-65
2021/10/16 00:57:43;;;;;;;16.17;3.40;;;10.40;99.90;;;;;;5032888;28;20057;-65
2021/10/16 01:00:10;;;;;;;12.45;2.50;;;10.40;99.90;;;;;;5031796;28;20033;-65
2021/10/16 01:02:36;;;;;;;11.70;2.63;;;10.40;99.90;;;;;;5032206;28;20034;-65
2021/10/16 01:05:05;;;;;;;11.60;2.28;;;10.40;99.90;;;;;;5033095;28;20061;-65
2021/10/16 01:07:31;;;;;;;10.07;2.50;;;10.40;99.90;;;;;;5030219;28;20026;-65
2021/10/16 01:09:57;;;;;;;11.65;2.15;;;10.40;99.90;;;;;;5030525;28;20312;-65
2021/10/16 01:12:23;;;;;;;16.20;2.45;;;10.40;99.90;;;;;;5032671;28;20083;-65
2021/10/16 01:14:58;;;;;;;17.08;2.30;;;10.40;99.90;;;;;;5031558;28;20048;-65
2021/10/16 01:17:25;;;;;;;17.52;3.10;;;10.40;99.90;;;;;;5032950;28;20029;-65
2021/10/16 01:20:00;;;;;;;13.23;2.83;;;10.40;99.90;;;;;;5031552;28;20064;-65
2021/10/16 01:22:27;;;;;;;12.77;2.33;;;10.40;99.90;;;;;;5032239;28;20041;-65
2021/10/16 01:24:53;;;;;;;11.65;2.67;;;10.30;99.90;;;;;;5031552;28;20056;-65
2021/10/16 01:27:20;;;;;;;11.35;2.90;;;10.40;99.90;;;;;;5031123;28;20137;-65
2021/10/16 01:29:48;;;;;;;14.80;2.97;;;10.40;99.90;;;;;;5031148;28;20318;-65
2021/10/16 01:32:14;;;;;;;9.15;1.98;;;10.40;99.90;;;;;;5031515;28;20381;-65
2021/10/16 01:34:41;;;;;;;14.13;2.28;;;10.40;99.90;;;;;;5031082;28;20100;-65
2021/10/16 01:37:07;;;;;;;9.82;2.22;;;10.40;99.90;;;;;;5031209;28;20100;-65
2021/10/16 01:39:33;;;;;;;9.07;2.20;;;10.40;99.90;;;;;;5031899;28;20406;-65
2021/10/16 01:41:59;;;;;;;13.02;2.92;;;10.50;99.90;;;;;;5031269;28;20025;-65
2021/10/16 01:44:26;;;;;;;8.85;1.80;;;10.50;99.90;;;;;;5031748;28;20134;-65
2021/10/16 01:46:53;;;;;;;12.88;2.50;;;10.50;99.90;;;;;;5030742;28;20057;-65
2021/10/16 01:49:20;;;;;;;9.75;2.88;;;10.50;99.90;;;;;;5033093;28;20102;-64
2021/10/16 01:51:47;;;;;;;8.27;2.53;;;10.50;99.90;;;;;;5030904;28;20033;-65
2021/10/16 01:54:14;;;;;;;14.95;2.20;;;10.50;99.90;;;;;;5031489;28;20026;-64
2021/10/16 01:56:40;;;;;;;7.63;2.40;;;10.50;99.90;;;;;;5028694;28;20375;-65
2021/10/16 01:59:17;;;;;;;6.90;1.67;;;10.50;99.90;;;;;;5031985;28;20029;-65
2021/10/16 02:01:44;;;;;;;4.65;1.48;;;10.40;99.90;;;;;;5030308;28;20033;-65
2021/10/16 02:04:11;;;;;;;11.50;2.47;;;10.50;99.90;;;;;;5029895;28;20371;-64
2021/10/16 02:06:37;;;;;;;10.85;2.15;;;10.40;99.90;;;;;;5032569;28;20323;-65
2021/10/16 02:09:04;;;;;;;10.23;3.08;;;10.40;99.90;;;;;;5029856;28;20040;-64
2021/10/16 02:11:30;;;;;;;8.82;2.42;;;10.40;99.90;;;;;;5030937;28;20025;-64
2021/10/16 02:13:57;;;;;;;9.75;2.10;;;10.40;99.90;;;;;;5032761;28;20033;-66
2021/10/16 02:16:22;;;;;;;9.13;2.20;;;10.40;99.90;;;;;;5029114;28;20022;-64
2021/10/16 02:18:48;;;;;;;13.10;3.03;;;10.40;99.90;;;;;;5032557;28;20025;-65
2021/10/16 02:21:14;;;;;;;14.68;2.40;;;10.40;99.90;;;;;;5029458;28;20067;-67
2021/10/16 02:23:40;;;;;;;7.80;2.33;;;10.40;99.90;;;;;;5032787;28;20108;-65
2021/10/16 02:26:06;;;;;;;7.80;2.10;;;10.20;99.90;;;;;;5030001;28;20029;-65
2021/10/16 02:28:32;;;;;;;12.27;2.42;;;10.00;99.90;;;;;;5031724;28;20374;-64
2021/10/16 02:30:58;;;;;;;14.20;3.08;;;9.90;99.90;;;;;;5030983;28;20328;-64
2021/10/16 02:33:23;;;;;;;12.13;2.22;;;9.90;99.90;;;;;;5029037;28;20052;-66
2021/10/16 02:35:49;;;;;;;12.48;2.22;;;9.80;99.90;;;;;;5013392;28;20036;-65
2021/10/16 02:38:15;;;;;;;13.18;2.55;;;9.80;99.90;;;;;;5031091;28;20040;-65
2021/10/16 02:40:41;;;;;;;10.50;1.95;;;9.70;99.90;;;;;;5030265;28;20661;-65
2021/10/16 02:43:07;;;;;;;10.77;2.35;;;9.70;99.90;;;;;;5031596;28;20041;-65
2021/10/16 02:45:33;;;;;;;11.02;2.22;;;9.60;99.90;;;;;;5029769;28;20067;-66
2021/10/16 02:47:59;;;;;;;13.30;2.42;;;9.70;99.90;;;;;;5028745;28;20553;-64
2021/10/16 02:50:25;;;;;;;9.98;2.30;;;9.60;99.90;;;;;;5029393;28;20033;-65
2021/10/16 02:52:51;;;;;;;14.40;2.25;;;9.70;99.90;;;;;;5029872;28;20055;-65
2021/10/16 02:55:17;;;;;;;8.93;2.05;;;9.70;99.90;;;;;;5030876;28;20088;-65
2021/10/16 02:57:43;;;;;;;8.82;3.05;;;9.80;99.90;;;;;;5030551;28;20033;-64
2021/10/16 03:00:10;;;;;;;17.15;2.92;;;9.80;99.90;;;;;;5029738;28;20089;-64
2021/10/16 03:02:36;;;;;;;11.30;2.35;;;9.80;99.90;;;;;;5030274;28;20336;-65
2021/10/16 03:05:03;;;;;;;14.80;2.42;;;9.80;99.90;;;;;;5029572;28;20239;-65
2021/10/16 03:07:29;;;;;;;13.85;2.83;;;9.80;99.90;;;;;;5031649;28;20048;-65
2021/10/16 03:09:56;;;;;;;10.57;2.00;;;9.90;99.90;;;;;;5030758;28;20041;-65
2021/10/16 03:12:22;;;;;;;12.48;2.22;;;9.90;99.90;;;;;;5029875;28;20033;-65
2021/10/16 03:14:48;;;;;;;12.13;2.30;;;9.90;99.90;;;;;;5028984;28;20033;-65
2021/10/16 03:17:13;;;;;;;7.05;2.00;;;9.90;99.90;;;;;;5030293;28;20112;-65
2021/10/16 03:19:39;;;;;;;8.20;1.88;;;9.80;99.90;;;;;;5030192;28;20076;-65
2021/10/16 03:22:07;;;;;;;7.47;2.00;;;9.80;99.90;;;;;;5030394;28;20065;-64
2021/10/16 03:24:34;;;;;;;13.32;2.22;;;9.90;99.90;;;;;;5029109;28;20130;-65
2021/10/16 03:27:01;;;;;;;8.10;2.28;;;9.80;99.90;;;;;;5030155;28;20021;-65
2021/10/16 03:29:26;;;;;;;12.38;2.42;;;9.80;99.90;;;;;;5030558;28;20033;-65
2021/10/16 03:31:52;;;;;;;9.60;2.50;;;9.80;99.90;;;;;;5030491;28;20036;-65
2021/10/16 03:34:18;;;;;;;9.38;2.30;;;9.90;99.90;;;;;;5030639;28;20212;-65
2021/10/16 03:36:44;;;;;;;8.80;1.60;;;9.80;99.90;;;;;;5030517;28;20216;-65
2021/10/16 03:39:10;;;;;;;8.10;1.58;;;9.90;99.90;;;;;;5028930;28;20228;-65
2021/10/16 03:41:36;;;;;;;9.15;1.90;;;9.90;99.90;;;;;;5029202;28;20104;-65
2021/10/16 03:44:02;;;;;;;5.53;1.98;;;9.90;99.90;;;;;;5030528;28;20052;-64
2021/10/16 03:46:28;;;;;;;9.98;2.40;;;9.80;99.90;;;;;;5027977;28;20031;-65
2021/10/16 03:48:54;;;;;;;11.20;2.05;;;9.80;99.90;;;;;;5030762;28;20037;-65
2021/10/16 03:51:20;;;;;;;9.75;2.08;;;9.70;99.90;;;;;;5030352;28;20124;-64
2021/10/16 03:53:45;;;;;;;15.60;2.47;;;9.60;99.90;;;;;;5030091;28;20229;-65
2021/10/16 03:56:11;;;;;;;5.45;1.92;;;9.70;99.90;;;;;;5029809;28;20195;-65
2021/10/16 03:58:37;;;;;;;9.52;1.80;;;9.60;99.90;;;;;;5031629;28;20103;-65
2021/10/16 04:01:03;;;;;;;7.95;2.20;;;9.50;99.90;;;;;;5028436;28;20040;-65
2021/10/16 04:03:30;;;;;;;12.68;3.13;;;9.50;99.90;;;;;;5031375;28;20041;-66
2021/10/16 04:05:56;;;;;;;11.90;2.50;;;9.50;99.90;;;;;;5015372;28;20127;-65
2021/10/16 04:08:22;;;;;;;13.38;2.85;;;9.40;99.90;;;;;;5032517;28;20194;-65
2021/10/16 04:10:48;;;;;;;8.43;1.95;;;9.40;99.90;;;;;;5031714;28;20029;-65
2021/10/16 04:13:14;;;;;;;7.40;2.13;;;9.50;99.90;;;;;;5033682;28;20464;-65
2021/10/16 04:15:40;;;;;;;12.88;2.78;;;9.50;99.90;;;;;;5032490;28;20053;-64
2021/10/16 04:18:05;;;;;;;8.80;2.22;;;9.60;99.90;;;;;;5033545;28;20025;-65
2021/10/16 04:20:32;;;;;;;11.02;2.30;;;9.60;99.90;;;;;;5032155;28;20095;-64
2021/10/16 04:22:58;;;;;;;7.18;2.13;;;9.70;99.90;;;;;;5033488;28;20045;-64
2021/10/16 04:25:25;;;;;;;7.25;1.90;;;9.70;99.90;;;;;;5032795;28;20119;-64
2021/10/16 04:27:51;;;;;;;10.85;1.98;;;9.70;99.90;;;;;;5033739;28;20033;-65
2021/10/16 04:30:18;;;;;;;11.07;1.73;;;9.70;99.90;;;;;;5032015;28;20033;-64
2021/10/16 04:32:44;;;;;;;9.57;1.80;;;9.70;99.90;;;;;;5032000;28;21985;-66
2021/10/16 04:35:10;;;;;;;10.48;2.75;;;9.80;99.90;;;;;;5033485;28;20086;-65
2021/10/16 04:37:36;;;;;;;11.43;2.20;;;9.80;99.90;;;;;;5031453;28;20122;-64
2021/10/16 04:40:13;;;;;;;10.70;1.60;;;9.80;99.90;;;;;;5030879;28;20026;-65
2021/10/16 04:42:41;;;;;;;5.00;1.13;;;9.80;99.90;;;;;;5030399;28;20332;-64
2021/10/16 04:45:08;;;;;;;6.00;1.20;;;9.80;99.90;;;;;;5032059;28;20249;-65
2021/10/16 04:47:34;;;;;;;8.45;1.15;;;9.90;99.90;;;;;;5030963;28;20103;-65
2021/10/16 04:50:00;;;;;;;7.43;1.52;;;9.80;99.90;;;;;;5031313;28;20025;-65
2021/10/16 04:52:26;;;;;;;8.40;1.85;;;9.80;99.90;;;;;;5030558;28;20036;-65
2021/10/16 04:54:52;;;;;;;8.88;1.92;;;9.80;99.90;;;;;;5029476;28;20025;-65
2021/10/16 04:57:18;;;;;;;7.38;1.52;;;9.80;99.90;;;;;;5029365;28;20127;-65
2021/10/16 04:59:44;;;;;;;8.15;2.22;;;9.70;99.90;;;;;;5033991;28;20053;-65
2021/10/16 05:02:10;;;;;;;11.15;1.50;;;9.70;99.90;;;;;;5030636;28;20065;-65
2021/10/16 05:04:35;;;;;;;10.68;1.50;;;9.70;99.90;;;;;;5032755;28;20037;-65
2021/10/16 05:07:01;;;;;;;9.50;1.85;;;9.60;99.90;;;;;;5033029;28;20021;-66
2021/10/16 05:09:27;;;;;;;10.68;1.60;;;9.60;99.90;;;;;;5033291;28;20154;-65
2021/10/16 05:11:53;;;;;;;9.38;1.80;;;9.60;99.90;;;;;;5032838;28;20029;-65
2021/10/16 05:14:19;;;;;;;5.68;1.73;;;9.60;99.90;;;;;;5032582;28;20039;-65
2021/10/16 05:16:44;;;;;;;7.13;1.80;;;9.60;99.90;;;;;;5031338;28;20021;-66
2021/10/16 05:19:10;;;;;;;6.82;1.50;;;9.50;99.90;;;;;;5032676;28;20045;-65
2021/10/16 05:21:36;;;;;;;9.18;1.52;;;9.50;99.90;;;;;;5030882;28;20053;-64
2021/10/16 05:24:02;;;;;;;6.65;1.40;;;9.50;99.90;;;;;;5032880;28;20095;-65
2021/10/16 05:26:28;;;;;;;5.53;1.17;;;9.50;99.90;;;;;;5032936;28;20040;-65
2021/10/16 05:28:55;;;;;;;8.00;1.30;;;9.50;99.90;;;;;;5032799;28;20320;-64
2021/10/16 05:31:22;;;;;;;6.95;1.67;;;9.50;99.90;;;;;;5032748;28;20025;-64
2021/10/16 05:33:49;;;;;;;6.10;2.00;;;9.50;99.90;;;;;;5032163;28;20060;-65
2021/10/16 05:36:15;;;;;;;5.55;1.17;;;9.50;99.90;;;;;;5032171;28;20126;-64
2021/10/16 05:38:41;;;;;;;5.40;1.58;;;9.50;99.90;;;;;;5032491;28;20450;-64
2021/10/16 05:41:07;;;;;;;6.03;0.93;;;9.50;99.90;;;;;;5032778;28;20109;-65
2021/10/16 05:43:33;;;;;;;6.03;1.20;;;9.60;99.90;;;;;;5030823;28;20060;-64
2021/10/16 05:46:01;;;;;;;13.43;1.95;;;9.60;99.90;;;;;;5032332;28;20021;-64
2021/10/16 05:48:29;;;;;;;11.77;2.05;;;9.50;99.90;;;;;;5013950;28;20029;-64
2021/10/16 05:50:56;;;;;;;7.15;1.40;;;9.50;99.90;;;;;;5032378;28;20021;-64
2021/10/16 05:53:23;;;;;;;6.53;1.73;;;9.60;99.90;;;;;;5030545;28;20119;-65
2021/10/16 05:55:49;;;;;;;4.10;1.17;;;9.50;99.90;;;;;;5030014;28;20021;-65
2021/10/16 05:58:17;;;;;;;9.48;1.52;;;9.60;99.90;;;;;;5027839;28;20040;-65
2021/10/16 06:00:43;;;;;;;3.30;1.17;;;9.60;99.90;;;;;;5026786;28;20087;-65
2021/10/16 06:03:08;;;;;;;5.78;1.30;;;9.60;99.90;;;;;;5028469;28;20213;-65
2021/10/16 06:05:35;;;;;;;4.70;1.20;;;9.50;99.90;;;;;;5029169;28;20056;-64
2021/10/16 06:08:01;;;;;;;9.85;2.25;;;9.50;99.90;;;;;;5029688;28;20032;-64
2021/10/16 06:10:27;;;;;;;5.47;2.10;;;9.60;99.90;;;;;;5029362;28;20029;-64
2021/10/16 06:12:53;;;;;;;7.63;1.90;;;9.50;99.90;;;;;;5028613;28;20029;-64
2021/10/16 06:15:19;;;;;;;5.30;1.77;;;9.50;99.90;;;;;;5030238;28;20223;-65
2021/10/16 06:17:45;;;;;;;7.00;1.70;;;9.50;99.90;;;;;;5029337;28;20021;-65
2021/10/16 06:20:11;;;;;;;8.25;1.98;;;9.50;99.90;;;;;;5030043;28;20099;-64
2021/10/16 06:22:37;;;;;;;4.55;1.58;;;9.50;99.90;;;;;;5030018;28;20064;-65
2021/10/16 06:25:04;;;;;;;7.78;2.30;;;9.50;99.90;;;;;;5028165;28;20219;-64
2021/10/16 06:27:29;;;;;;;9.82;2.35;;;9.50;99.90;;;;;;5030765;28;20056;-66
2021/10/16 06:29:55;;;;;;;7.80;1.40;;;9.60;99.90;;;;;;5023553;28;20064;-65
2021/10/16 06:32:21;;;;;;;5.55;1.48;;;9.60;99.90;;;;;;5027666;28;20034;-66
2021/10/16 06:34:48;;;;;;;5.20;2.00;;;9.70;99.90;;;;;;5031497;28;20332;-65
2021/10/16 06:37:14;;;;;;;6.35;1.10;;;9.70;99.90;;;;;;5031337;28;20025;-65
2021/10/16 06:39:40;;;;;;;6.35;1.60;;;9.70;99.90;;;;;;5027493;28;20329;-65
2021/10/16 06:42:06;;;;;;;6.82;2.25;;;9.80;99.90;;;;;;5027856;28;20108;-65
2021/10/16 06:44:31;;;;;;;8.45;1.50;;;9.70;99.90;;;;;;5027122;28;20037;-65
2021/10/16 06:46:57;;;;;;;11.00;1.38;;;9.70;99.90;;;;;;5028424;28;20116;-65
2021/10/16 06:49:23;;;;;;;12.93;2.00;;;9.70;99.90;;;;;;5027314;28;20026;-64
2021/10/16 06:51:49;;;;;;;7.05;1.40;;;9.70;99.90;;;;;;5025445;28;20072;-66
2021/10/16 06:54:15;;;;;;;5.00;1.65;;;9.70;99.90;;;;;;5027049;28;20092;-66
2021/10/16 06:56:41;;;;;;;9.68;1.98;;;9.70;99.90;;;;;;5027034;28;20026;-65
2021/10/16 06:59:06;;;;;;;12.13;1.73;;;9.60;99.90;;;;;;5028629;28;20371;-65
2021/10/16 07:01:32;;;;;;;11.77;1.58;;;9.70;99.90;;;;;;5028448;28;20056;-64
2021/10/16 07:03:58;;;;;;;6.55;1.60;;;9.70;99.90;;;;;;5027981;28;20057;-65
2021/10/16 07:06:24;;;;;;;8.48;1.92;;;9.70;99.90;;;;;;5027087;28;20044;-65
2021/10/16 07:08:50;;;;;;;8.95;1.85;;;9.70;99.90;;;;;;5025643;28;20029;-65
2021/10/16 07:11:16;;;;;;;9.95;2.17;;;9.70;99.90;;;;;;5027459;28;20223;-65
2021/10/16 07:13:41;;;;;;;7.40;1.88;;;9.70;99.90;;;;;;5025790;28;20029;-65
2021/10/16 07:16:08;;;;;;;10.77;2.67;;;9.70;99.90;;;;;;5027238;28;20029;-65
2021/10/16 07:18:34;;;;;;;7.10;1.92;;;9.70;99.90;;;;;;5028779;28;20076;-65
2021/10/16 07:21:00;;;;;;;7.18;1.80;;;9.70;99.90;;;;;;5029636;28;20096;-65
2021/10/16 07:23:28;;;;;;;6.28;1.50;;;9.60;99.90;;;;;;5028636;28;20042;-64
2021/10/16 07:25:56;;;;;;;6.75;1.60;;;9.70;99.90;;;;;;5029673;28;20276;-65
2021/10/16 07:28:22;;;;;;;6.63;1.85;;;9.70;99.90;;;;;;5027798;28;20220;-65
2021/10/16 07:30:49;;;;;;;12.52;2.33;;;9.80;99.90;;;;;;5008111;28;20025;-65
2021/10/16 07:33:15;;;;;;;10.52;3.22;;;9.90;99.90;;;;;;5027983;28;20040;-65
2021/10/16 07:35:41;;;;;;;8.40;2.28;;;10.20;99.90;;;;;;5029267;28;20017;-65
2021/10/16 07:38:07;;;;;;;6.60;2.15;;;10.70;99.90;;;;;;5025974;28;20029;-65
2021/10/16 07:40:33;;;;;;;7.63;1.70;;;11.00;99.90;;;;;;5025162;28;20032;-65
2021/10/16 07:42:59;;;;;;;5.18;1.23;;;11.10;99.90;;;;;;5027883;28;20045;-65
2021/10/16 07:45:25;;;;;;;8.48;2.08;;;11.30;99.90;;;;;;5030016;28;20170;-65
2021/10/16 07:47:51;;;;;;;7.78;1.75;;;11.80;99.90;;;;;;5026192;28;20089;-65
2021/10/16 07:50:17;;;;;;;9.82;1.70;;;12.30;99.90;;;;;;5030042;28;20297;-66
2021/10/16 07:52:43;;;;;;;7.75;1.60;;;12.90;99.90;;;;;;5033825;28;20320;-66
2021/10/16 07:55:09;;;;;;;5.22;1.38;;;13.20;99.90;;;;;;5026598;28;20032;-65
2021/10/16 07:57:35;;;;;;;7.22;1.55;;;12.90;99.90;;;;;;5029184;28;20095;-66
2021/10/16 08:00:00;;;;;;;9.70;1.50;;;12.30;99.90;;;;;;5028769;28;20308;-66
2021/10/16 08:02:26;;;;;;;8.07;1.50;;;11.80;99.90;;;;;;5032112;28;20331;-65
2021/10/16 08:04:52;;;;;;;5.63;1.45;;;11.40;99.90;;;;;;5031420;28;20368;-65
2021/10/16 08:07:19;;;;;;;10.85;2.45;;;11.20;99.90;;;;;;5029205;28;20027;-66
2021/10/16 08:09:44;;;;;;;4.47;1.70;;;11.10;99.90;;;;;;5032721;28;20357;-66
2021/10/16 08:12:10;;;;;;;7.88;1.70;;;10.90;99.90;;;;;;5028287;28;20382;-65
2021/10/16 08:14:36;;;;;;;8.23;1.70;;;10.90;99.90;;;;;;5027309;28;20074;-66
2021/10/16 08:17:02;;;;;;;11.23;2.17;;;10.90;99.90;;;;;;5027588;28;20037;-67
2021/10/16 08:19:28;;;;;;;5.70;1.98;;;10.90;99.90;;;;;;5030850;28;20552;-66
2021/10/16 08:21:54;;;;;;;9.60;1.65;;;10.90;99.90;;;;;;5035880;28;20105;-79
2021/10/16 08:27:22;;;;;;;9.07;2.30;;;11.00;99.90;;;;;;5060541;28;20105;-80
2021/10/16 08:29:47;;;;;;;10.88;2.08;;;11.10;99.90;;;;;;5436658;23;20057;-78
2021/10/16 08:32:13;;;;;;;5.88;1.70;;;11.10;99.90;;;;;;5047695;28;20102;-77
2021/10/16 08:34:39;;;;;;;7.38;1.83;;;11.10;99.90;;;;;;5042233;28;20361;-76
2021/10/16 08:37:05;;;;;;;12.40;2.35;;;11.20;99.90;;;;;;5050492;28;20065;-76
2021/10/16 08:39:31;;;;;;;9.95;1.83;;;11.10;99.90;;;;;;5063833;23;20108;-78
2021/10/16 08:41:58;;;;;;;9.70;1.95;;;11.10;99.90;;;;;;5030822;28;20041;-80
2021/10/16 08:44:24;;;;;;;8.73;1.70;;;11.10;99.90;;;;;;5018693;28;20045;-79
2021/10/16 08:46:55;;;;;;;9.48;2.05;;;11.00;99.90;;;;;;5027665;28;20021;-77
2021/10/16 08:49:22;;;;;;;11.05;2.53;;;10.90;99.90;;;;;;5020426;28;20040;-78
2021/10/16 08:51:48;;;;;;;10.27;1.95;;;10.80;99.90;;;;;;5031771;28;20093;-80
2021/10/16 08:54:14;;;;;;;6.55;1.77;;;10.80;99.90;;;;;;5020387;28;20037;-79
2021/10/16 08:56:40;;;;;;;10.73;2.00;;;10.80;99.90;;;;;;5031536;28;20032;-78
2021/10/16 08:59:05;;;;;;;7.22;1.90;;;10.90;99.90;;;;;;5033197;28;20213;-78
2021/10/16 09:01:31;;;;;;;9.35;2.15;;;11.00;99.90;;;;;;5032992;28;20033;-78
2021/10/16 09:03:58;;;;;;;6.63;1.55;;;11.20;99.90;;;;;;5032123;28;20557;-75
2021/10/16 09:06:27;;;;;;;8.45;1.58;;;11.50;99.90;;;;;;5026679;28;20033;-78
2021/10/16 09:08:53;;;;;;;14.20;2.17;;;11.50;99.90;;;;;;5027473;28;20257;-75
2021/10/16 09:11:24;;;;;;;7.88;1.90;;;11.50;99.90;;;;;;5031023;28;20842;-79
2021/10/16 09:14:01;;;;;;;8.27;1.70;;;11.50;99.90;;;;;;5043291;28;20090;-79
2021/10/16 09:16:32;;;;;;;13.65;2.22;;;11.70;99.90;;;;;;5039295;28;20041;-79
2021/10/16 09:19:10;;;;;;;11.23;3.15;;;11.90;99.90;;;;;;5038282;28;20030;-79
2021/10/16 09:21:47;;;;;;;9.07;2.00;;;12.00;99.90;;;;;;5042113;28;20093;-78
2021/10/16 09:24:16;;;;;;;10.27;2.42;;;12.10;99.90;;;;;;5042954;28;20068;-79
2021/10/16 09:26:45;;;;;;;7.20;1.52;;;12.10;99.90;;;;;;5036496;28;20009;-79
2021/10/16 09:29:15;;;;;;;8.63;1.77;;;12.10;99.90;;;;;;5054429;23;20061;-71
2021/10/16 09:31:44;;;;;;;10.43;1.92;;;12.10;99.90;;;;;;5050574;28;20032;-79
2021/10/16 09:34:11;;;;;;;9.65;2.08;;;12.30;99.90;;;;;;5046256;28;20111;-78
2021/10/16 09:36:38;;;;;;;7.28;1.80;;;12.40;99.90;;;;;;5031712;28;20067;-78
2021/10/16 09:39:06;;;;;;;9.00;2.10;;;12.60;99.90;;;;;;5046783;28;20032;-78
2021/10/16 09:44:30;;;;;;;7.07;1.80;;;12.60;99.90;;;;;;5998048;23;20017;-78
2021/10/16 09:47:00;;;;;;;7.10;2.13;;;12.60;99.90;;;;;;5037375;28;20089;-77
2021/10/16 09:49:34;;;;;;;;;;;12.70;99.90;;;;;;5042855;28;20061;-78
2021/10/16 09:52:02;;;;;;;7.20;2.58;;;12.70;99.90;;;;;;5041674;28;19976;-78
2021/10/16 09:54:30;;;;;;;7.07;1.83;;;12.80;99.90;;;;;;5042965;28;20101;-78
2021/10/16 09:56:59;;;;;;;13.90;1.75;;;13.00;99.90;;;;;;5039152;28;20030;-78
2021/10/16 09:59:26;;;;;;;11.80;1.60;;;12.90;99.90;;;;;;5027371;28;20036;-77
2021/10/16 10:01:53;;;;;;;7.47;1.60;;;12.80;99.90;;;;;;5018729;28;20057;-77
2021/10/16 10:04:23;;;;;;;8.70;1.75;;;12.70;99.90;;;;;;5035688;28;20113;-78
2021/10/16 10:06:49;;;;;;;6.78;1.70;;;12.50;99.90;;;;;;5036952;28;20025;-79
2021/10/16 10:09:16;;;;;;;7.07;1.83;;;12.30;99.90;;;;;;5033935;28;20033;-77
2021/10/16 10:11:47;;;;;;;10.45;2.17;;;12.20;99.90;;;;;;5036190;28;20288;-78
2021/10/16 10:14:15;;;;;;;6.22;1.85;;;12.20;99.90;;;;;;5031428;28;20029;-77
2021/10/16 10:16:42;;;;;;;7.13;1.60;;;12.20;99.90;;;;;;5027784;28;20029;-78
2021/10/16 10:19:09;;;;;;;5.00;1.48;;;12.10;99.90;;;;;;5030263;28;20033;-77
2021/10/16 10:21:37;;;;;;;7.38;1.67;;;11.90;99.90;;;;;;5028867;28;20398;-77
2021/10/16 10:24:07;;;;;;;3.40;1.25;;;11.90;99.90;;;;;;5028868;28;20037;-77
2021/10/16 10:26:44;;;;;;;3.88;1.38;;;11.90;99.90;;;;;;5029115;28;20026;-76
2021/10/16 10:29:13;;;;;;;6.43;1.60;;;12.10;99.90;;;;;;5021018;28;20030;-75
2021/10/16 10:31:45;;;;;;;6.63;1.50;;;12.10;99.90;;;;;;5028646;28;20022;-76
2021/10/16 10:34:19;;;;;;;7.28;2.28;;;12.20;99.90;;;;;;5032720;28;20101;-77
2021/10/16 10:36:48;;;;;;;11.38;1.98;;;12.20;99.90;;;;;;5028557;28;20082;-76
2021/10/16 10:39:35;;;;;;;6.07;1.48;;;12.20;99.90;;;;;;5029158;28;20044;-76
2021/10/16 10:42:13;;;;;;;25.17;2.92;;;12.40;99.90;;;;;;5023555;28;20033;-76
2021/10/16 10:45:05;;;;;;;10.30;1.83;;;12.80;99.90;;;;;;5031413;28;20049;-77
2021/10/16 10:47:36;;;;;;;16.40;2.15;;;13.10;99.90;;;;;;5031486;28;20038;-78
2021/10/16 10:50:08;;;;;;;11.77;1.95;;;13.10;99.90;;;;;;4992963;28;20093;-80
2021/10/16 10:53:07;;;;;;;7.60;1.70;;;13.70;99.90;;;;;;5027657;28;20220;-82
2021/10/16 10:55:50;;;;;;;8.07;1.42;;;14.70;99.90;;;;;;5020171;28;20040;-83
2021/10/16 10:58:16;;;;;;;7.32;1.40;;;15.50;99.90;;;;;;5019059;28;20037;-77
2021/10/16 11:00:42;;;;;;;4.78;1.80;;;16.20;99.90;;;;;;5017866;28;20021;-75
2021/10/16 11:03:30;;;;;;;6.20;1.83;;;15.80;99.90;;;;;;5020042;28;20061;-78
2021/10/16 11:06:11;;;;;;;7.80;1.75;;;14.90;99.90;;;;;;5004874;28;20271;-75
2021/10/16 11:08:37;;;;;;;5.25;1.40;;;14.30;99.90;;;;;;5021525;28;20038;-77
2021/10/16 11:11:04;;;;;;;5.70;1.48;;;14.10;99.90;;;;;;5020816;28;20041;-77
2021/10/16 11:13:35;;;;;;;6.93;1.42;;;13.80;99.90;;;;;;5022677;28;20079;-78
2021/10/16 11:16:04;;;;;;;6.68;1.30;;;13.40;99.90;;;;;;5027248;28;20079;-78
2021/10/16 11:18:30;;;;;;;7.28;1.65;;;13.20;99.90;;;;;;5011869;28;20080;-77
2021/10/16 11:21:10;;;;;;;5.20;1.60;;;13.10;99.90;;;;;;5029934;28;20097;-77
2021/10/16 11:23:38;;;;;;;5.82;1.50;;;12.70;99.90;;;;;;5027574;28;20198;-77
2021/10/16 11:26:12;;;;;;;12.23;2.25;;;12.40;99.90;;;;;;5026767;28;20379;-78
2021/10/16 11:28:39;;;;;;;7.15;1.65;;;12.30;99.90;;;;;;5030968;23;20058;-77
2021/10/16 11:31:07;;;;;;;7.43;1.50;;;12.30;99.90;;;;;;5018203;28;20034;-78
2021/10/16 11:33:39;;;;;;;11.75;1.92;;;12.20;99.90;;;;;;5019810;28;20030;-78
2021/10/16 11:36:07;;;;;;;8.13;1.70;;;12.20;99.90;;;;;;5017297;28;20038;-78
2021/10/16 11:38:35;;;;;;;7.85;2.03;;;12.00;99.90;;;;;;5015024;28;20044;-77
2021/10/16 11:41:04;;;;;;;7.70;1.60;;;11.80;99.90;;;;;;5013636;28;20125;-77
2021/10/16 11:43:37;;;;;;;5.35;1.60;;;11.70;99.90;;;;;;5017074;28;20038;-78
2021/10/16 11:46:20;;;;;;;5.25;1.38;;;11.70;99.90;;;;;;5019034;28;20034;-78
2021/10/16 11:48:47;;;;;;;6.20;1.30;;;12.00;99.90;;;;;;5022398;28;20037;-78
2021/10/16 11:51:13;;;;;;;7.68;1.58;;;12.40;99.90;;;;;;5014032;28;20026;-78
2021/10/16 11:53:44;;;;;;;3.65;1.20;;;13.30;99.90;;;;;;5007515;28;20029;-78
2021/10/16 11:56:13;;;;;;;3.67;1.38;;;14.40;99.90;;;;;;5005896;28;20038;-79
2021/10/16 11:58:41;;;;;;;6.78;1.02;;;15.30;99.90;;;;;;4991585;28;20061;-79
2021/10/16 12:01:09;;;;;;;8.05;1.58;;;16.10;99.90;;;;;;5006527;28;20365;-77
2021/10/16 12:03:40;;;;;;;5.43;1.65;;;16.80;99.90;;;;;;5006468;28;20375;-79
2021/10/16 12:06:10;;;;;;;3.47;0.93;;;17.40;99.90;;;;;;4995006;28;20029;-75
2021/10/16 12:08:41;;;;;;;7.93;1.10;;;17.10;99.90;;;;;;5004491;28;20105;-75
2021/10/16 12:11:07;;;;;;;4.45;1.33;;;17.10;99.90;;;;;;5005136;28;20025;-73
2021/10/16 12:13:34;;;;;;;4.25;1.40;;;16.80;99.90;;;;;;5005316;28;20220;-71
2021/10/16 12:16:14;;;;;;;6.13;1.30;;;16.20;99.90;;;;;;5005733;28;20057;-71
2021/10/16 12:18:59;;;;;;;8.27;2.25;;;15.30;99.90;;;;;;5006171;28;20041;-70
2021/10/16 12:21:36;;;;;;;7.72;1.40;;;14.50;99.90;;;;;;5003857;28;20443;-71
2021/10/16 12:24:13;;;;;;;5.60;1.45;;;13.90;99.90;;;;;;5004251;28;20113;-71
2021/10/16 12:26:41;;;;;;;5.15;1.40;;;13.60;99.90;;;;;;5003555;28;20036;-71
2021/10/16 12:29:31;;;;;;;4.40;1.25;;;13.50;99.90;;;;;;5005204;28;20257;-71
2021/10/16 12:31:59;;;;;;;9.10;1.65;;;13.40;99.90;;;;;;5005052;28;20030;-71
2021/10/16 12:34:29;;;;;;;6.00;1.40;;;13.50;99.90;;;;;;5005115;28;20185;-71
2021/10/16 12:36:56;;;;;;;5.22;1.15;;;13.70;99.90;;;;;;5004381;28;20355;-71
2021/10/16 12:39:28;;;;;;;5.38;1.38;;;13.90;99.90;;;;;;5005083;28;20103;-71
2021/10/16 12:41:54;;;;;;;10.82;1.90;;;13.80;99.90;;;;;;5005665;28;20026;-72
2021/10/16 12:44:28;;;;;;;6.53;1.30;;;13.70;99.90;;;;;;5004845;28;20041;-72
2021/10/16 12:47:05;;;;;;;4.07;1.38;;;13.60;99.90;;;;;;5004429;28;20030;-71
2021/10/16 12:49:46;;;;;;;3.88;1.60;;;13.40;99.90;;;;;;5003110;28;20026;-72
2021/10/16 12:52:48;;;;;;;4.82;1.40;;;13.30;99.90;;;;;;5006038;28;20033;-72
2021/10/16 12:55:14;;;;;;;8.52;1.90;;;13.10;99.90;;;;;;4977722;28;20034;-72
2021/10/16 12:57:58;;;;;;;3.80;1.65;;;12.70;99.90;;;;;;5005106;28;20026;-72